Time;durP1;ratioP1;P1;durP2;ratioP2;P2;SDS_P1;SDS_P2;PMS_P1;PMS_P2;Temp;Humidity;BMP_temperature;BMP_pressure;BME280_temperature;BME280_humidity;BME280_pressure;Samples;Min_cycle;Max_cycle;Signal;HPM_P1;HPM_P2
2023/12/13 00:01:35;;;;;;;0.93;0.93;;;17.30;68.60;;;;;;5082590;28;45387;-72
2023/12/13 00:04:03;;;;;;;1.03;1.03;;;17.30;68.70;;;;;;5090140;28;43462;-72
2023/12/13 00:06:34;;;;;;;1.03;1.03;;;17.30;68.80;;;;;;5065566;28;43509;-79
2023/12/13 00:09:02;;;;;;;1.00;1.00;;;17.30;68.70;;;;;;5070352;28;43992;-80
2023/12/13 00:11:31;;;;;;;1.00;1.00;;;17.30;68.60;;;;;;5070089;28;43687;-79
2023/12/13 00:13:59;;;;;;;0.80;0.80;;;17.30;68.70;;;;;;5064433;28;44735;-79
2023/12/13 00:16:27;;;;;;;1.00;1.00;;;17.30;68.70;;;;;;5069924;28;43910;-78
2023/12/13 00:18:55;;;;;;;1.00;1.00;;;17.30;68.80;;;;;;5062505;28;43579;-77
2023/12/13 00:21:24;;;;;;;0.90;0.90;;;17.20;68.80;;;;;;5063225;28;45873;-79
2023/12/13 00:23:53;;;;;;;0.90;0.90;;;17.30;68.90;;;;;;5069889;28;43482;-80
2023/12/13 00:26:23;;;;;;;1.00;1.00;;;17.40;68.70;;;;;;5055625;28;43504;-74
2023/12/13 00:28:52;;;;;;;0.90;0.90;;;17.50;68.30;;;;;;5063187;28;43546;-75
2023/12/13 00:31:20;;;;;;;1.20;1.20;;;17.60;67.90;;;;;;5061162;28;45386;-75
2023/12/13 00:33:49;;;;;;;0.80;0.80;;;17.60;67.80;;;;;;5069618;28;43462;-74
2023/12/13 00:36:17;;;;;;;0.93;0.93;;;17.60;68.00;;;;;;5069598;28;43359;-74
2023/12/13 00:38:45;;;;;;;0.90;0.90;;;17.50;68.00;;;;;;5069454;28;43392;-74
2023/12/13 00:41:14;;;;;;;0.90;0.90;;;17.50;68.00;;;;;;5069604;28;43604;-74
2023/12/13 00:43:42;;;;;;;0.87;0.87;;;17.50;68.00;;;;;;5067059;28;43817;-74
2023/12/13 00:46:15;;;;;;;0.90;0.90;;;17.40;68.10;;;;;;5069698;28;43432;-74
2023/12/13 00:48:43;;;;;;;1.03;1.03;;;17.40;68.20;;;;;;5064489;28;43530;-73
2023/12/13 00:51:16;;;;;;;0.90;0.90;;;17.40;68.50;;;;;;5069128;28;43607;-76
2023/12/13 00:53:44;;;;;;;0.90;0.90;;;17.30;68.50;;;;;;5068893;28;43406;-73
2023/12/13 00:56:13;;;;;;;1.00;1.00;;;17.40;68.50;;;;;;5069248;28;43501;-75
2023/12/13 00:58:42;;;;;;;0.80;0.80;;;17.30;68.40;;;;;;5066989;28;43547;-75
2023/12/13 01:01:10;;;;;;;0.90;0.90;;;17.40;68.60;;;;;;5069043;28;43595;-74
2023/12/13 01:03:38;;;;;;;1.00;1.00;;;17.30;68.60;;;;;;5069277;28;43960;-74
2023/12/13 01:06:09;;;;;;;1.07;1.07;;;17.30;68.70;;;;;;5068597;28;43405;-74
2023/12/13 01:08:37;;;;;;;0.87;0.87;;;17.30;68.80;;;;;;5069384;28;43462;-74
2023/12/13 01:11:08;;;;;;;0.97;0.97;;;17.30;68.80;;;;;;5057205;28;44656;-74
2023/12/13 01:13:37;;;;;;;0.90;0.90;;;17.40;68.50;;;;;;5064570;28;44410;-74
2023/12/13 01:16:06;;;;;;;0.77;0.77;;;17.50;68.30;;;;;;5073501;28;43332;-75
2023/12/13 01:18:35;;;;;;;1.00;1.00;;;17.50;68.00;;;;;;5101177;28;43468;-72
2023/12/13 01:21:03;;;;;;;0.70;0.70;;;17.50;68.00;;;;;;5088829;28;43811;-72
2023/12/13 01:23:31;;;;;;;1.10;1.10;;;17.40;68.10;;;;;;5088881;28;43331;-71
2023/12/13 01:26:00;;;;;;;0.93;0.93;;;17.40;68.30;;;;;;5088567;28;43522;-72
2023/12/13 01:28:28;;;;;;;0.93;0.93;;;17.40;68.10;;;;;;5090160;28;43431;-72
2023/12/13 01:30:57;;;;;;;0.80;0.80;;;17.40;68.20;;;;;;5089277;28;43843;-73
2023/12/13 01:33:25;;;;;;;0.70;0.70;;;17.40;68.30;;;;;;5088374;28;43477;-72
2023/12/13 01:35:54;;;;;;;0.90;0.90;;;17.40;68.50;;;;;;5078294;28;43459;-73
2023/12/13 01:38:22;;;;;;;0.80;0.80;;;17.40;68.50;;;;;;5064143;28;43463;-71
2023/12/13 01:40:51;;;;;;;1.10;1.10;;;17.30;68.70;;;;;;5068609;28;43702;-73
2023/12/13 01:43:39;;;;;;;0.80;0.80;;;17.30;68.50;;;;;;5063745;28;43445;-72
2023/12/13 01:46:09;;;;;;;0.80;0.80;;;17.40;68.60;;;;;;5064256;28;43849;-72
2023/12/13 01:48:37;;;;;;;0.70;0.70;;;17.30;68.60;;;;;;5067768;28;44054;-72
2023/12/13 01:51:06;;;;;;;0.90;0.90;;;17.30;69.40;;;;;;5068287;28;44094;-72
2023/12/13 01:53:34;;;;;;;0.80;0.80;;;17.30;68.70;;;;;;5054247;28;44377;-73
2023/12/13 01:56:02;;;;;;;0.80;0.80;;;17.30;68.80;;;;;;5068101;28;43538;-73
2023/12/13 01:58:30;;;;;;;0.80;0.80;;;17.30;68.60;;;;;;5068905;28;43501;-72
2023/12/13 02:00:59;;;;;;;0.80;0.80;;;17.30;68.60;;;;;;5067870;28;43939;-72
2023/12/13 02:03:28;;;;;;;0.80;0.80;;;17.30;68.70;;;;;;5059534;28;45095;-71
2023/12/13 02:05:56;;;;;;;0.80;0.80;;;17.30;68.70;;;;;;5068367;28;43383;-71
2023/12/13 02:08:24;;;;;;;1.00;1.00;;;17.30;68.80;;;;;;5068456;28;43890;-72
2023/12/13 02:10:52;;;;;;;0.67;0.67;;;17.30;68.90;;;;;;5067959;28;44074;-72
2023/12/13 02:13:20;;;;;;;0.73;0.73;;;17.40;68.80;;;;;;5062026;28;43410;-73
2023/12/13 02:15:49;;;;;;;0.70;0.70;;;17.40;68.40;;;;;;5060126;28;43446;-72
2023/12/13 02:18:17;;;;;;;0.90;0.90;;;17.50;68.00;;;;;;5070120;28;44038;-73
2023/12/13 02:20:49;;;;;;;1.10;1.10;;;17.60;67.80;;;;;;5067708;28;43599;-72
2023/12/13 02:23:19;;;;;;;0.70;0.70;;;17.60;67.80;;;;;;5067605;28;43973;-72
2023/12/13 02:25:49;;;;;;;0.90;0.90;;;17.50;67.90;;;;;;5067934;28;43435;-73
2023/12/13 02:28:17;;;;;;;0.70;0.70;;;17.50;67.90;;;;;;5068558;28;43471;-73
2023/12/13 02:30:46;;;;;;;0.87;0.87;;;17.50;67.80;;;;;;5067365;28;43887;-72
2023/12/13 02:33:14;;;;;;;0.73;0.73;;;17.50;68.00;;;;;;5063134;28;44913;-73
2023/12/13 02:35:42;;;;;;;0.80;0.80;;;17.40;68.10;;;;;;5059077;28;44172;-73
2023/12/13 02:38:10;;;;;;;0.80;0.80;;;17.40;68.30;;;;;;5066734;28;43352;-71
2023/12/13 02:40:40;;;;;;;0.80;0.80;;;17.30;68.30;;;;;;5067435;28;43612;-72
2023/12/13 02:43:08;;;;;;;0.80;0.80;;;17.30;68.40;;;;;;5058869;28;44409;-71
2023/12/13 02:45:36;;;;;;;0.90;0.90;;;17.40;68.50;;;;;;5068560;28;43338;-74
2023/12/13 02:48:05;;;;;;;0.67;0.67;;;17.40;68.50;;;;;;5068067;28;43400;-74
2023/12/13 02:50:36;;;;;;;0.60;0.60;;;17.30;68.50;;;;;;5067622;28;43882;-74
2023/12/13 02:53:04;;;;;;;0.80;0.80;;;17.30;68.50;;;;;;5065870;28;43471;-76
2023/12/13 02:55:32;;;;;;;0.70;0.70;;;17.30;68.70;;;;;;5067412;28;44016;-75
2023/12/13 02:58:02;;;;;;;0.83;0.83;;;17.30;68.80;;;;;;5067855;28;43402;-74
2023/12/13 03:00:30;;;;;;;0.80;0.80;;;17.30;68.60;;;;;;5066791;28;43936;-74
2023/12/13 03:02:58;;;;;;;0.63;0.63;;;17.30;68.50;;;;;;5067426;28;43995;-73
2023/12/13 03:05:26;;;;;;;0.70;0.70;;;17.30;68.60;;;;;;5067415;28;43771;-74
2023/12/13 03:07:54;;;;;;;0.60;0.60;;;17.30;68.70;;;;;;5067801;28;43526;-75
2023/12/13 03:10:22;;;;;;;0.87;0.87;;;17.30;68.70;;;;;;5066905;28;44100;-75
2023/12/13 03:12:50;;;;;;;0.80;0.80;;;17.20;68.80;;;;;;5066852;28;44100;-74
2023/12/13 03:15:20;;;;;;;0.70;0.70;;;17.30;68.80;;;;;;5068698;28;43316;-76
2023/12/13 03:17:48;;;;;;;0.90;0.90;;;17.40;68.50;;;;;;5071254;28;43446;-75
2023/12/13 03:20:16;;;;;;;0.77;0.77;;;17.50;68.20;;;;;;5065741;28;46101;-76
2023/12/13 03:22:44;;;;;;;0.73;0.73;;;17.50;67.90;;;;;;5062314;28;44685;-75
2023/12/13 03:25:12;;;;;;;0.70;0.70;;;17.50;67.80;;;;;;5063542;28;43455;-75
2023/12/13 03:27:42;;;;;;;0.80;0.80;;;17.50;68.00;;;;;;5063854;28;43475;-73
2023/12/13 03:30:11;;;;;;;0.80;0.80;;;17.50;68.20;;;;;;5070626;28;43884;-74
2023/12/13 03:32:41;;;;;;;1.27;0.90;;;17.40;67.90;;;;;;5069895;28;43423;-76
2023/12/13 03:35:11;;;;;;;0.97;0.97;;;17.40;68.00;;;;;;5064659;28;43443;-75
2023/12/13 03:37:39;;;;;;;0.80;0.80;;;17.40;68.20;;;;;;5067275;28;43502;-74
2023/12/13 03:40:09;;;;;;;0.80;0.80;;;17.30;68.20;;;;;;5069561;28;43720;-74
2023/12/13 03:42:37;;;;;;;0.80;0.80;;;17.30;68.40;;;;;;5065164;28;43467;-75
2023/12/13 03:45:06;;;;;;;0.80;0.80;;;17.30;68.50;;;;;;5070352;28;43466;-75
2023/12/13 03:47:34;;;;;;;0.70;0.70;;;17.30;68.40;;;;;;5064311;28;43459;-75
2023/12/13 03:50:05;;;;;;;0.97;0.90;;;17.30;68.50;;;;;;5059666;28;45991;-74
2023/12/13 03:52:33;;;;;;;0.60;0.60;;;17.30;68.50;;;;;;5070139;28;43464;-75
2023/12/13 03:55:01;;;;;;;0.80;0.80;;;17.30;68.60;;;;;;5060292;28;43415;-74
2023/12/13 03:57:29;;;;;;;1.10;1.00;;;17.20;68.60;;;;;;5090391;28;43397;-72
2023/12/13 03:59:58;;;;;;;0.70;0.70;;;17.20;68.70;;;;;;5090222;28;43697;-72
2023/12/13 04:02:26;;;;;;;0.90;0.90;;;17.20;68.50;;;;;;5090199;28;43373;-73
2023/12/13 04:04:54;;;;;;;0.60;0.60;;;17.30;68.60;;;;;;5090752;28;43566;-74
2023/12/13 04:07:23;;;;;;;0.67;0.67;;;17.20;68.60;;;;;;5090743;28;43443;-73
2023/12/13 04:09:52;;;;;;;0.80;0.80;;;17.20;68.70;;;;;;5090119;28;43914;-72
2023/12/13 04:12:19;;;;;;;0.63;0.63;;;17.20;68.70;;;;;;5082003;28;44361;-72
2023/12/13 04:14:48;;;;;;;1.13;1.13;;;17.20;68.80;;;;;;5083639;28;43372;-70
2023/12/13 04:17:16;;;;;;;0.70;0.70;;;17.30;68.80;;;;;;5091025;28;43380;-73
2023/12/13 04:19:44;;;;;;;1.23;0.60;;;17.30;68.50;;;;;;5089966;28;43631;-72
2023/12/13 04:22:12;;;;;;;0.80;0.80;;;17.50;68.30;;;;;;5088876;28;43453;-72
2023/12/13 04:24:41;;;;;;;0.93;0.80;;;17.50;67.90;;;;;;5088426;28;43385;-69
2023/12/13 04:27:10;;;;;;;0.70;0.70;;;17.50;67.80;;;;;;5089494;28;43443;-72
2023/12/13 04:29:40;;;;;;;1.13;1.00;;;17.50;67.90;;;;;;5083352;28;46429;-71
2023/12/13 04:32:09;;;;;;;0.87;0.83;;;17.50;68.00;;;;;;5090008;28;43948;-73
2023/12/13 04:34:37;;;;;;;0.77;0.77;;;17.50;68.00;;;;;;5083070;28;43400;-72
2023/12/13 04:37:05;;;;;;;0.60;0.60;;;17.50;68.10;;;;;;5089992;28;43360;-72
2023/12/13 04:39:33;;;;;;;0.70;0.70;;;17.40;68.20;;;;;;5089701;28;43624;-72
2023/12/13 04:42:06;;;;;;;0.80;0.80;;;17.40;68.30;;;;;;5085345;28;43403;-71
2023/12/13 04:44:34;;;;;;;0.70;0.70;;;17.40;68.50;;;;;;5084457;28;43468;-71
2023/12/13 04:47:04;;;;;;;1.20;0.70;;;17.30;68.40;;;;;;5069719;28;43555;-72
2023/12/13 04:49:32;;;;;;;0.80;0.80;;;17.40;68.40;;;;;;5069702;28;43710;-71
2023/12/13 04:52:00;;;;;;;0.70;0.70;;;17.30;68.30;;;;;;5069296;28;43413;-73
2023/12/13 04:54:28;;;;;;;0.90;0.90;;;17.40;68.50;;;;;;5069178;28;43446;-72
2023/12/13 04:56:56;;;;;;;0.60;0.60;;;17.30;68.50;;;;;;5070076;28;43708;-72
2023/12/13 04:59:26;;;;;;;1.57;0.80;;;17.30;68.60;;;;;;5068864;28;43718;-70
2023/12/13 05:01:53;;;;;;;1.33;0.80;;;17.30;68.80;;;;;;5067643;28;43351;-71
2023/12/13 05:04:22;;;;;;;0.63;0.63;;;17.30;68.60;;;;;;5062211;28;43461;-73
2023/12/13 05:06:50;;;;;;;0.70;0.70;;;17.30;68.60;;;;;;5059766;28;43447;-80
2023/12/13 05:09:18;;;;;;;0.70;0.70;;;17.30;68.60;;;;;;5060350;28;45550;-79
2023/12/13 05:11:46;;;;;;;0.80;0.80;;;17.30;68.70;;;;;;5068875;28;43539;-79
2023/12/13 05:14:14;;;;;;;0.77;0.77;;;17.30;68.70;;;;;;5069139;28;43472;-78
2023/12/13 05:16:43;;;;;;;0.80;0.80;;;17.30;68.90;;;;;;5065032;28;43449;-78
2023/12/13 05:19:11;;;;;;;0.73;0.73;;;17.30;68.70;;;;;;5069241;28;43627;-78
2023/12/13 05:21:39;;;;;;;0.80;0.80;;;17.40;68.60;;;;;;5068632;28;43741;-77
2023/12/13 05:24:08;;;;;;;1.70;0.80;;;17.50;68.20;;;;;;5058155;28;43297;-79
2023/12/13 05:26:36;;;;;;;0.77;0.77;;;17.60;67.90;;;;;;5067624;28;44036;-79
2023/12/13 05:29:04;;;;;;;1.90;0.93;;;17.60;67.70;;;;;;5068785;28;43600;-76
2023/12/13 05:31:33;;;;;;;0.83;0.83;;;17.60;67.80;;;;;;5068531;28;43891;-80
2023/12/13 05:34:02;;;;;;;0.80;0.80;;;17.60;68.00;;;;;;5060297;28;43461;-78
2023/12/13 05:36:31;;;;;;;0.90;0.90;;;17.60;67.90;;;;;;5069415;28;43448;-78
2023/12/13 05:38:59;;;;;;;0.67;0.67;;;17.50;68.00;;;;;;5068465;28;43620;-79
2023/12/13 05:41:27;;;;;;;0.73;0.73;;;17.50;68.10;;;;;;5067690;28;43346;-74
2023/12/13 05:43:55;;;;;;;0.80;0.80;;;17.40;68.10;;;;;;5068576;28;43433;-80
2023/12/13 05:46:23;;;;;;;0.70;0.70;;;17.40;68.30;;;;;;5069169;28;43420;-76
2023/12/13 05:48:51;;;;;;;0.70;0.70;;;17.40;69.30;;;;;;5068434;28;43604;-78
2023/12/13 05:51:20;;;;;;;0.80;0.80;;;17.40;69.20;;;;;;5068505;28;43372;-77
2023/12/13 05:53:48;;;;;;;0.60;0.60;;;17.40;68.50;;;;;;5068133;28;43383;-78
2023/12/13 05:56:16;;;;;;;0.90;0.90;;;17.40;68.60;;;;;;5061918;28;43464;-73
2023/12/13 05:58:44;;;;;;;0.70;0.70;;;17.30;68.60;;;;;;5066904;28;43599;-75
2023/12/13 06:01:12;;;;;;;0.87;0.87;;;17.30;68.70;;;;;;5068428;28;43370;-75
2023/12/13 06:03:41;;;;;;;1.20;1.00;;;17.30;69.00;;;;;;5068127;28;43796;-74
2023/12/13 06:06:09;;;;;;;1.10;1.10;;;17.40;68.90;;;;;;5068828;28;43385;-76
2023/12/13 06:08:40;;;;;;;0.90;0.90;;;17.40;68.80;;;;;;5067702;28;43699;-74
2023/12/13 06:11:08;;;;;;;0.90;0.90;;;17.40;68.80;;;;;;5055316;28;44608;-74
2023/12/13 06:13:36;;;;;;;1.10;1.10;;;17.30;68.80;;;;;;5059255;28;43383;-74
2023/12/13 06:16:06;;;;;;;1.53;1.00;;;17.30;68.80;;;;;;5080460;28;43368;-71
2023/12/13 06:18:34;;;;;;;1.10;1.00;;;17.30;69.10;;;;;;5080290;28;45385;-71
2023/12/13 06:21:02;;;;;;;1.80;1.57;;;17.30;69.00;;;;;;5084283;28;43429;-72
2023/12/13 06:23:30;;;;;;;0.90;0.90;;;17.40;68.80;;;;;;5088400;28;43367;-73
2023/12/13 06:25:59;;;;;;;1.27;1.00;;;17.50;68.40;;;;;;5081161;28;43421;-73
2023/12/13 06:28:27;;;;;;;1.30;1.20;;;17.50;68.00;;;;;;5088120;28;43884;-71
2023/12/13 06:30:55;;;;;;;1.53;1.03;;;17.50;68.00;;;;;;5087619;28;43339;-72
2023/12/13 06:33:24;;;;;;;1.03;1.03;;;17.50;68.10;;;;;;5084127;28;43408;-71
2023/12/13 06:35:52;;;;;;;1.30;1.20;;;17.50;68.30;;;;;;5088784;28;43518;-72
2023/12/13 06:38:21;;;;;;;1.37;1.13;;;17.50;68.20;;;;;;5088117;28;43926;-73
2023/12/13 06:40:49;;;;;;;1.10;1.10;;;17.50;68.30;;;;;;5087509;28;43392;-75
2023/12/13 06:43:20;;;;;;;0.93;0.93;;;17.40;68.30;;;;;;5086216;28;44038;-73
2023/12/13 06:45:48;;;;;;;1.00;1.00;;;17.40;68.50;;;;;;5086308;28;43449;-72
2023/12/13 06:48:16;;;;;;;1.10;1.10;;;17.40;68.60;;;;;;5077758;28;45685;-71
2023/12/13 06:50:44;;;;;;;1.20;1.20;;;17.40;68.80;;;;;;5085401;28;43457;-72
2023/12/13 06:53:12;;;;;;;1.00;1.00;;;17.40;68.60;;;;;;5086366;28;43444;-71
2023/12/13 06:55:40;;;;;;;1.07;1.07;;;17.40;68.60;;;;;;5074316;28;43570;-71
2023/12/13 06:58:08;;;;;;;1.20;1.00;;;17.30;68.50;;;;;;5086053;28;43596;-72
2023/12/13 07:00:37;;;;;;;0.93;0.93;;;17.40;68.70;;;;;;5085407;28;43388;-71
2023/12/13 07:03:05;;;;;;;1.00;1.00;;;17.30;68.70;;;;;;5086045;28;43901;-73
2023/12/13 07:05:33;;;;;;;1.00;1.00;;;17.30;68.90;;;;;;5073932;28;43486;-72
2023/12/13 07:08:02;;;;;;;0.90;0.90;;;17.30;68.80;;;;;;5067031;28;44105;-72
2023/12/13 07:10:30;;;;;;;1.10;1.10;;;17.40;68.60;;;;;;5066781;28;43471;-73
2023/12/13 07:12:58;;;;;;;1.03;1.03;;;17.50;68.30;;;;;;5053407;28;43910;-72
2023/12/13 07:15:27;;;;;;;1.13;1.13;;;17.50;68.00;;;;;;5063126;28;43405;-72
2023/12/13 07:17:56;;;;;;;1.00;1.00;;;17.50;68.00;;;;;;5064727;28;44730;-72
2023/12/13 07:20:24;;;;;;;1.60;1.00;;;17.50;68.10;;;;;;5066897;28;43386;-75
2023/12/13 07:22:53;;;;;;;0.80;0.80;;;17.50;68.30;;;;;;5067119;28;43406;-72
2023/12/13 07:25:21;;;;;;;1.03;1.03;;;17.50;68.20;;;;;;5069559;28;43997;-72
2023/12/13 07:27:50;;;;;;;1.03;1.03;;;17.40;68.20;;;;;;5065260;28;45976;-71
2023/12/13 07:30:18;;;;;;;1.10;1.10;;;17.40;69.00;;;;;;5078972;28;43437;-72
2023/12/13 07:32:46;;;;;;;0.90;0.90;;;17.40;68.50;;;;;;5070542;28;43489;-73
2023/12/13 07:35:17;;;;;;;1.10;1.10;;;17.30;68.50;;;;;;5080225;28;43436;-71
2023/12/13 07:37:46;;;;;;;1.83;1.20;;;17.40;68.80;;;;;;5075644;28;44658;-73
2023/12/13 07:40:14;;;;;;;0.90;0.90;;;17.40;68.60;;;;;;5085617;28;43379;-73
2023/12/13 07:42:42;;;;;;;0.70;0.70;;;17.40;68.70;;;;;;5085614;28;43352;-73
2023/12/13 07:45:11;;;;;;;0.90;0.90;;;17.30;68.70;;;;;;5087094;28;44254;-72
2023/12/13 07:47:39;;;;;;;1.27;1.27;;;17.30;68.70;;;;;;5085603;28;43924;-72
2023/12/13 07:50:08;;;;;;;0.90;0.90;;;17.30;68.80;;;;;;5085941;28;44234;-73
2023/12/13 07:52:38;;;;;;;1.53;1.43;;;17.30;68.90;;;;;;5084734;28;43427;-74
2023/12/13 07:55:07;;;;;;;1.00;1.00;;;17.30;68.70;;;;;;5085991;28;43384;-71
2023/12/13 07:57:35;;;;;;;0.90;0.90;;;17.30;68.70;;;;;;5084495;28;44117;-73
2023/12/13 08:00:04;;;;;;;0.80;0.80;;;17.30;68.70;;;;;;5079384;28;44680;-73
2023/12/13 08:02:39;;;;;;;1.20;1.20;;;17.30;68.80;;;;;;5081150;28;43458;-71
2023/12/13 08:05:16;;;;;;;1.10;1.10;;;17.30;68.90;;;;;;5089936;28;43412;-71
2023/12/13 08:07:45;;;;;;;1.07;1.00;;;17.30;69.00;;;;;;5079472;28;45987;-70
2023/12/13 08:10:13;;;;;;;0.97;0.97;;;17.40;68.90;;;;;;5088841;28;43399;-71
2023/12/13 08:12:42;;;;;;;1.23;1.23;;;17.50;68.60;;;;;;5089551;28;43485;-72
2023/12/13 08:15:10;;;;;;;1.33;1.10;;;17.60;68.20;;;;;;5087130;28;43437;-72
2023/12/13 08:17:38;;;;;;;1.03;1.03;;;17.60;68.00;;;;;;5081458;28;44150;-74
2023/12/13 08:20:07;;;;;;;1.00;1.00;;;17.60;68.00;;;;;;5089562;28;43400;-72
2023/12/13 08:22:35;;;;;;;1.33;1.10;;;17.50;68.30;;;;;;5080971;28;43428;-72
2023/12/13 08:25:17;;;;;;;0.90;0.90;;;17.50;68.10;;;;;;5089837;28;43472;-71
2023/12/13 08:27:46;;;;;;;0.97;0.97;;;17.50;68.10;;;;;;5085184;28;43616;-71
2023/12/13 08:30:14;;;;;;;0.80;0.80;;;17.50;68.30;;;;;;5088134;28;43328;-72
2023/12/13 08:32:42;;;;;;;0.90;0.90;;;17.40;68.30;;;;;;5070242;28;43400;-72
2023/12/13 08:35:10;;;;;;;1.00;1.00;;;17.40;68.50;;;;;;5087990;28;43565;-70
2023/12/13 08:37:38;;;;;;;0.80;0.80;;;17.30;68.60;;;;;;5089581;28;44387;-72
2023/12/13 08:40:08;;;;;;;0.90;0.90;;;17.40;69.30;;;;;;5089321;28;43421;-72
2023/12/13 08:42:38;;;;;;;0.90;0.90;;;17.30;68.40;;;;;;5089432;28;44457;-71
2023/12/13 08:45:12;;;;;;;1.40;1.30;;;17.30;68.60;;;;;;5073780;28;43550;-71
2023/12/13 08:47:40;;;;;;;1.10;1.10;;;17.30;68.70;;;;;;5084608;28;43625;-71
2023/12/13 08:50:08;;;;;;;1.77;1.70;;;17.30;68.70;;;;;;5089768;27;43428;-73
2023/12/13 08:52:37;;;;;;;1.83;1.73;;;17.30;68.90;;;;;;5087981;28;43418;-72
2023/12/13 08:55:08;;;;;;;9.73;3.80;;;17.30;69.00;;;;;;5084110;28;43499;-72
2023/12/13 08:57:37;;;;;;;13.03;4.90;;;17.40;68.80;;;;;;5088580;28;43667;-71
2023/12/13 09:00:07;;;;;;;10.50;4.00;;;17.40;68.60;;;;;;5088254;28;43360;-73
2023/12/13 09:02:38;;;;;;;13.50;4.27;;;17.50;68.40;;;;;;5088999;28;43409;-72
2023/12/13 09:05:07;;;;;;;9.50;3.70;;;17.40;68.30;;;;;;5088878;28;43340;-72
2023/12/13 09:07:35;;;;;;;14.80;4.60;;;17.40;68.40;;;;;;5081469;28;46032;-73
2023/12/13 09:10:08;;;;;;;9.10;4.13;;;17.40;68.70;;;;;;5087879;28;43446;-72
2023/12/13 09:12:38;;;;;;;8.07;3.67;;;17.40;68.50;;;;;;5078524;28;43431;-73
2023/12/13 09:15:07;;;;;;;8.10;4.00;;;17.40;68.50;;;;;;5073572;28;43458;-74
2023/12/13 09:17:35;;;;;;;6.67;4.00;;;17.40;68.60;;;;;;5088259;28;44163;-72
2023/12/13 09:20:05;;;;;;;8.83;4.03;;;17.40;68.70;;;;;;5078227;28;45305;-73
2023/12/13 09:22:34;;;;;;;9.23;3.77;;;17.30;68.70;;;;;;5082044;28;43463;-71
2023/12/13 09:25:02;;;;;;;7.73;4.37;;;17.30;69.00;;;;;;5086383;28;43359;-75
2023/12/13 09:27:31;;;;;;;8.53;4.23;;;17.30;68.70;;;;;;5051682;28;46419;-75
2023/12/13 09:30:00;;;;;;;5.53;3.93;;;17.30;68.70;;;;;;5060973;28;44818;-73
2023/12/13 09:32:28;;;;;;;7.03;4.00;;;17.30;68.80;;;;;;5068492;28;43438;-73
2023/12/13 09:34:56;;;;;;;7.63;3.80;;;17.30;68.90;;;;;;5068314;28;43478;-77
2023/12/13 09:37:24;;;;;;;9.57;4.07;;;17.30;68.90;;;;;;5068443;28;43913;-73
2023/12/13 09:39:53;;;;;;;6.00;3.80;;;17.30;69.10;;;;;;5064476;28;43479;-74
2023/12/13 09:42:30;;;;;;;9.67;3.97;;;17.30;69.00;;;;;;5065857;28;44051;-75
2023/12/13 09:44:59;;;;;;;7.27;4.00;;;17.40;68.70;;;;;;5067080;28;43523;-73
2023/12/13 09:47:27;;;;;;;10.43;4.23;;;17.50;68.40;;;;;;5065331;28;45366;-73
2023/12/13 09:49:56;;;;;;;6.30;3.83;;;17.50;68.30;;;;;;5067439;28;43464;-73
2023/12/13 09:52:24;;;;;;;31.37;5.93;;;17.50;68.30;;;;;;5067125;28;43418;-72
2023/12/13 09:54:52;;;;;;;13.37;4.50;;;17.40;68.50;;;;;;5067446;28;43456;-73
2023/12/13 09:57:20;;;;;;;17.17;4.73;;;17.40;68.70;;;;;;5067224;28;43620;-74
2023/12/13 09:59:48;;;;;;;12.10;4.53;;;17.40;68.60;;;;;;5064256;28;43433;-75
2023/12/13 10:02:17;;;;;;;7.30;4.27;;;17.40;68.60;;;;;;5066391;28;43367;-74
2023/12/13 10:04:45;;;;;;;9.20;4.50;;;17.40;68.70;;;;;;5064809;28;43477;-74
2023/12/13 10:07:14;;;;;;;11.30;4.67;;;17.30;68.70;;;;;;5066640;28;43941;-74
2023/12/13 10:09:43;;;;;;;18.37;5.53;;;17.30;68.80;;;;;;5054431;28;44840;-73
2023/12/13 10:12:12;;;;;;;20.13;5.20;;;17.30;69.00;;;;;;5054417;28;43426;-73
2023/12/13 10:14:40;;;;;;;11.30;4.83;;;17.30;68.70;;;;;;5067801;28;43491;-74
2023/12/13 10:17:08;;;;;;;11.93;4.53;;;17.30;68.70;;;;;;5067248;28;43694;-74
2023/12/13 10:19:48;;;;;;;10.43;5.00;;;17.30;68.70;;;;;;5048956;28;44715;-74
2023/12/13 10:22:17;;;;;;;9.27;4.60;;;17.30;68.80;;;;;;5067575;28;43419;-74
2023/12/13 10:24:46;;;;;;;13.30;4.50;;;17.30;68.90;;;;;;5065084;28;44047;-74
2023/12/13 10:27:14;;;;;;;10.97;4.90;;;17.30;69.20;;;;;;5067090;28;43885;-74
2023/12/13 10:29:42;;;;;;;13.90;4.77;;;17.40;69.10;;;;;;5066705;28;43554;-74
2023/12/13 10:32:11;;;;;;;9.20;4.30;;;17.40;68.70;;;;;;5052681;28;44067;-74
2023/12/13 10:34:40;;;;;;;8.63;4.07;;;17.50;68.40;;;;;;5053015;28;43956;-74
2023/12/13 10:37:09;;;;;;;7.20;4.00;;;17.50;68.10;;;;;;5067263;28;43928;-75
2023/12/13 10:39:37;;;;;;;9.93;4.43;;;17.50;68.30;;;;;;5065234;28;43463;-75
2023/12/13 10:42:05;;;;;;;13.07;4.30;;;17.40;68.60;;;;;;5058012;28;43412;-73
2023/12/13 10:44:33;;;;;;;9.97;4.37;;;17.40;68.30;;;;;;5067939;28;43448;-73
2023/12/13 10:47:06;;;;;;;8.43;4.10;;;17.40;68.20;;;;;;5063614;28;44722;-75
2023/12/13 10:49:34;;;;;;;6.43;3.80;;;17.40;68.50;;;;;;5067590;28;43411;-75
2023/12/13 10:52:03;;;;;;;5.70;3.70;;;17.40;68.70;;;;;;5067651;28;43483;-74
2023/12/13 10:54:33;;;;;;;5.73;3.83;;;17.40;68.80;;;;;;5067228;28;43936;-74
2023/12/13 10:57:01;;;;;;;6.27;3.80;;;17.40;69.40;;;;;;5060425;28;45266;-78
2023/12/13 10:59:29;;;;;;;5.30;3.47;;;17.30;68.80;;;;;;5067521;28;43315;-78
2023/12/13 11:01:57;;;;;;;6.30;3.60;;;17.40;68.80;;;;;;5055559;28;43429;-79
2023/12/13 11:04:25;;;;;;;6.17;3.77;;;17.40;68.90;;;;;;5062151;28;44460;-78
2023/12/13 11:06:53;;;;;;;6.43;3.90;;;17.30;69.60;;;;;;5064576;28;45961;-79
2023/12/13 11:09:22;;;;;;;7.30;3.90;;;17.30;69.00;;;;;;5067370;28;43361;-79
2023/12/13 11:11:53;;;;;;;6.40;3.50;;;17.30;69.00;;;;;;5067207;28;43435;-80
2023/12/13 11:14:21;;;;;;;7.70;3.70;;;17.30;68.90;;;;;;5067810;28;43926;-78
2023/12/13 11:16:50;;;;;;;4.83;3.50;;;17.40;68.80;;;;;;5067253;28;43592;-78
2023/12/13 11:19:21;;;;;;;8.47;3.87;;;17.50;68.60;;;;;;5067242;28;43361;-80
2023/12/13 11:21:50;;;;;;;9.43;3.60;;;17.50;68.70;;;;;;5062558;28;44004;-79
2023/12/13 11:24:23;;;;;;;3.93;3.37;;;17.50;68.10;;;;;;5067937;28;43772;-79
2023/12/13 11:26:53;;;;;;;5.17;2.97;;;17.50;68.30;;;;;;5067146;28;43866;-77
2023/12/13 11:29:22;;;;;;;5.97;3.50;;;17.50;68.50;;;;;;5067306;28;43423;-79
2023/12/13 11:31:52;;;;;;;4.17;3.30;;;17.50;68.30;;;;;;5067478;28;43880;-80
2023/12/13 11:34:30;;;;;;;5.10;3.10;;;17.50;68.50;;;;;;5067149;28;43406;-78
2023/12/13 11:36:58;;;;;;;5.33;3.37;;;17.50;68.50;;;;;;5058271;28;46053;-77
2023/12/13 11:39:27;;;;;;;4.80;3.30;;;17.40;68.60;;;;;;5070565;28;43451;-79
2023/12/13 11:41:56;;;;;;;4.63;3.20;;;17.40;68.70;;;;;;5070547;28;43332;-79
2023/12/13 11:44:27;;;;;;;6.27;3.00;;;17.40;68.90;;;;;;5070953;28;43447;-78
2023/12/13 11:46:55;;;;;;;2.90;2.67;;;17.40;68.70;;;;;;5070537;28;43610;-73
2023/12/13 11:49:25;;;;;;;2.97;2.73;;;17.40;68.80;;;;;;5070259;28;43461;-73
2023/12/13 11:51:53;;;;;;;2.97;2.77;;;17.40;68.80;;;;;;5070040;28;43896;-72
2023/12/13 11:54:21;;;;;;;4.13;2.77;;;17.30;68.90;;;;;;5070574;28;43859;-73
2023/12/13 11:56:49;;;;;;;4.20;3.23;;;17.30;68.90;;;;;;5063972;28;46013;-73
2023/12/13 11:59:20;;;;;;;4.53;3.20;;;17.40;69.30;;;;;;5066155;28;43562;-73
2023/12/13 12:01:48;;;;;;;10.07;3.30;;;17.40;69.20;;;;;;5070007;28;43326;-73
2023/12/13 12:04:18;;;;;;;5.47;2.83;;;17.50;68.90;;;;;;5070386;28;44051;-73
2023/12/13 12:06:47;;;;;;;3.77;2.70;;;17.50;68.50;;;;;;5068739;28;44045;-73
2023/12/13 12:09:15;;;;;;;6.30;2.87;;;17.50;68.40;;;;;;5067511;28;43604;-72
2023/12/13 12:11:43;;;;;;;3.40;2.60;;;17.50;68.50;;;;;;5069088;28;43471;-72
2023/12/13 12:14:11;;;;;;;8.50;2.80;;;17.50;68.80;;;;;;5066839;28;43597;-72
2023/12/13 12:16:41;;;;;;;7.33;2.90;;;17.50;68.70;;;;;;5063267;28;43889;-73
2023/12/13 12:19:10;;;;;;;3.10;2.80;;;17.50;68.70;;;;;;5069814;28;43450;-75
2023/12/13 12:21:42;;;;;;;3.63;2.93;;;17.50;68.80;;;;;;5065034;28;43408;-73
2023/12/13 12:24:11;;;;;;;4.37;2.80;;;17.40;68.80;;;;;;5070076;28;44245;-73
2023/12/13 12:26:39;;;;;;;5.00;2.80;;;17.40;68.90;;;;;;5069684;28;43975;-73
2023/12/13 12:29:07;;;;;;;3.40;2.73;;;17.40;69.20;;;;;;5069400;28;43519;-73
2023/12/13 12:31:35;;;;;;;4.70;2.90;;;17.40;69.10;;;;;;5066700;28;43484;-73
2023/12/13 12:34:05;;;;;;;2.63;2.10;;;17.40;69.00;;;;;;5054905;28;43333;-74
2023/12/13 12:36:34;;;;;;;2.60;2.40;;;17.40;69.10;;;;;;5068885;28;43877;-71
2023/12/13 12:39:01;;;;;;;3.80;2.37;;;17.30;69.00;;;;;;5068684;28;43822;-73
2023/12/13 12:41:34;;;;;;;3.77;2.50;;;17.40;69.30;;;;;;5068962;28;43311;-73
2023/12/13 12:44:04;;;;;;;5.33;2.87;;;17.30;69.30;;;;;;5069225;28;43506;-73
2023/12/13 12:46:32;;;;;;;5.57;2.93;;;17.30;69.40;;;;;;5069002;28;43616;-73
2023/12/13 12:49:00;;;;;;;2.67;2.47;;;17.40;69.20;;;;;;5068155;28;43917;-73
2023/12/13 12:51:30;;;;;;;2.57;2.40;;;17.40;69.30;;;;;;5052754;28;43330;-74
2023/12/13 12:53:58;;;;;;;2.77;2.57;;;17.40;69.40;;;;;;5068964;28;43524;-72